Pottersville, Indiana
Current Conditions -  °F | °C
As of 12:53 AM on Wednesday 26 Nov 2014 (Local Time) from KBMG Reporting Station
Overcast Overcast  
Wind Chill: 27°   Ceiling: 1300
Heat Index: 27°   Visibility: 10mi
Dew Point: 22°   Wind: 0mph
Humidity: 81%   Direction: NA
Pressure: 30.17"   Gusts: NA
Location:  39.3008°N, 86.8112°W
Report Text: KBMG 260553Z 00000KT 10SM OVC013 M03/M06 A3017 RMK AO2 SLP223 T10281056 11006 21028 56010
Loading
Personal Weather Stations






























Interactive Weather Map New forecast layout! Learn more

10-Day Weather Forecast

Advertisements
Track Severe Weather on mobile